Time;durP1;ratioP1;P1;durP2;ratioP2;P2;SDS_P1;SDS_P2;PMS_P1;PMS_P2;Temp;Humidity;BMP_temperature;BMP_pressure;BME280_temperature;BME280_humidity;BME280_pressure;Samples;Min_cycle;Max_cycle;Signal;HPM_P1;HPM_P2
2021/10/20 00:02:17;;;;;;;6.10;5.50;;;16.10;85.70;;;;;;5069730;28;20082;-73
2021/10/20 00:04:43;;;;;;;6.55;5.70;;;16.00;85.80;;;;;;5062884;28;20029;-72
2021/10/20 00:07:08;;;;;;;7.57;5.47;;;16.10;85.70;;;;;;5067160;28;20024;-72
2021/10/20 00:09:34;;;;;;;6.80;5.47;;;16.00;85.30;;;;;;5089908;28;20039;-73
2021/10/20 00:12:00;;;;;;;9.07;5.43;;;16.00;85.40;;;;;;5090466;28;20439;-73
2021/10/20 00:14:26;;;;;;;8.27;5.43;;;16.00;85.50;;;;;;5082510;28;20038;-72
2021/10/20 00:16:52;;;;;;;9.25;5.72;;;16.00;85.30;;;;;;5080207;28;20055;-72
2021/10/20 00:19:18;;;;;;;6.35;5.40;;;16.00;85.20;;;;;;5065826;28;20052;-72
2021/10/20 00:21:44;;;;;;;8.07;5.35;;;16.00;85.20;;;;;;5088057;28;20039;-72
2021/10/20 00:24:10;;;;;;;7.45;5.05;;;16.00;85.10;;;;;;5076836;28;20028;-72
2021/10/20 00:26:37;;;;;;;7.32;5.00;;;16.00;85.00;;;;;;5072502;28;20557;-73
2021/10/20 00:29:03;;;;;;;9.13;5.35;;;15.90;85.10;;;;;;5073513;28;20115;-72
2021/10/20 00:31:29;;;;;;;6.85;5.13;;;15.90;85.00;;;;;;5067955;28;20024;-73
2021/10/20 00:33:55;;;;;;;7.97;4.78;;;15.90;85.30;;;;;;5078550;28;20131;-73
2021/10/20 00:36:21;;;;;;;6.55;5.35;;;15.90;85.30;;;;;;5068688;28;20028;-73
2021/10/20 00:38:46;;;;;;;5.65;4.88;;;15.90;85.10;;;;;;5054488;28;20024;-73
2021/10/20 00:41:13;;;;;;;7.57;4.82;;;15.90;85.00;;;;;;5087039;28;20024;-73
2021/10/20 00:43:40;;;;;;;5.93;5.40;;;15.90;84.90;;;;;;5068582;28;20028;-73
2021/10/20 00:46:06;;;;;;;7.43;4.95;;;15.90;84.90;;;;;;5066960;28;20024;-72
2021/10/20 00:48:32;;;;;;;7.38;5.13;;;15.90;84.80;;;;;;5064378;28;20024;-72
2021/10/20 00:50:58;;;;;;;9.25;5.07;;;15.80;84.40;;;;;;5080641;28;20024;-73
2021/10/20 00:53:24;;;;;;;8.68;5.22;;;15.90;84.50;;;;;;5092729;28;20391;-73
2021/10/20 00:55:50;;;;;;;5.20;4.70;;;15.80;84.40;;;;;;5063219;28;20085;-73
2021/10/20 00:58:17;;;;;;;7.28;4.82;;;15.80;84.20;;;;;;5066171;28;20474;-72
2021/10/20 01:00:43;;;;;;;6.13;4.90;;;15.80;84.00;;;;;;5093290;28;20067;-72
2021/10/20 01:03:09;;;;;;;5.40;4.68;;;15.80;84.40;;;;;;5081919;28;20032;-72
2021/10/20 01:05:35;;;;;;;6.75;5.10;;;15.80;84.50;;;;;;5069844;28;20025;-74
2021/10/20 01:08:01;;;;;;;8.55;4.88;;;15.80;84.60;;;;;;5088475;28;20375;-72
2021/10/20 01:10:27;;;;;;;9.00;4.47;;;15.80;85.20;;;;;;5076446;28;20689;-73
2021/10/20 01:12:53;;;;;;;6.60;4.88;;;15.80;84.60;;;;;;5068375;28;20075;-73
2021/10/20 01:15:25;;;;;;;7.43;4.68;;;15.80;84.70;;;;;;5088253;28;20424;-73
2021/10/20 01:17:51;;;;;;;6.00;4.50;;;15.80;84.80;;;;;;5088356;28;20048;-73
2021/10/20 01:20:19;;;;;;;8.15;4.65;;;15.80;84.60;;;;;;5092607;28;20028;-73
2021/10/20 01:22:45;;;;;;;5.22;4.38;;;15.80;84.30;;;;;;5084551;28;20428;-73
2021/10/20 01:25:12;;;;;;;7.05;4.47;;;15.80;84.50;;;;;;5070483;28;20031;-72
2021/10/20 01:27:37;;;;;;;6.18;4.78;;;15.80;84.60;;;;;;5099076;28;20058;-73
2021/10/20 01:30:05;;;;;;;5.78;4.43;;;15.80;84.50;;;;;;5088993;28;20056;-72
2021/10/20 01:32:31;;;;;;;5.53;4.15;;;15.80;84.40;;;;;;5083263;28;20021;-73
2021/10/20 01:34:57;;;;;;;6.82;5.03;;;15.70;83.80;;;;;;5084104;28;20035;-73
2021/10/20 01:37:24;;;;;;;6.78;4.22;;;15.70;84.00;;;;;;5082043;28;20040;-73
2021/10/20 01:39:51;;;;;;;4.80;4.13;;;15.70;83.50;;;;;;5076733;28;20458;-72
2021/10/20 01:42:16;;;;;;;5.55;4.47;;;15.80;83.50;;;;;;5056827;28;20039;-73
2021/10/20 01:44:42;;;;;;;8.63;4.93;;;15.80;82.60;;;;;;5064101;28;20028;-71
2021/10/20 01:47:08;;;;;;;9.23;4.45;;;15.90;82.50;;;;;;5061068;28;20153;-72
2021/10/20 01:49:33;;;;;;;6.25;4.53;;;15.90;82.50;;;;;;5070300;28;20033;-72
2021/10/20 01:51:59;;;;;;;7.03;4.50;;;16.00;82.50;;;;;;5087941;28;20058;-72
2021/10/20 01:54:26;;;;;;;9.70;5.22;;;16.00;82.00;;;;;;5070619;28;20074;-73
2021/10/20 01:56:53;;;;;;;7.10;4.50;;;16.00;82.10;;;;;;5080953;28;20498;-72
2021/10/20 01:59:19;;;;;;;7.28;4.70;;;16.10;81.90;;;;;;5069870;28;20060;-72
2021/10/20 02:01:45;;;;;;;5.25;4.53;;;16.10;81.40;;;;;;5090232;28;20024;-72
2021/10/20 02:04:12;;;;;;;4.78;4.25;;;16.10;81.40;;;;;;5077557;28;20009;-73
2021/10/20 02:06:41;;;;;;;6.15;4.30;;;16.20;81.50;;;;;;5085438;28;20027;-73
2021/10/20 02:09:07;;;;;;;5.97;4.45;;;16.20;81.10;;;;;;5089219;28;20032;-73
2021/10/20 02:11:34;;;;;;;7.30;4.65;;;16.20;81.30;;;;;;5069500;28;20032;-72
2021/10/20 02:14:01;;;;;;;5.03;4.50;;;16.20;80.90;;;;;;5091393;28;20028;-73
2021/10/20 02:16:27;;;;;;;6.75;4.55;;;16.20;80.50;;;;;;5090704;28;20116;-72
2021/10/20 02:18:54;;;;;;;5.80;4.07;;;16.20;80.80;;;;;;5057286;28;20194;-73
2021/10/20 02:21:20;;;;;;;5.60;4.18;;;16.20;81.00;;;;;;5080489;28;20043;-73
2021/10/20 02:23:46;;;;;;;5.82;4.60;;;16.20;80.60;;;;;;5063609;28;20033;-72
2021/10/20 02:26:12;;;;;;;4.70;4.20;;;16.20;80.90;;;;;;5059379;28;20035;-72
2021/10/20 02:28:37;;;;;;;7.47;4.72;;;16.20;80.50;;;;;;5070369;28;20024;-72
2021/10/20 02:31:03;;;;;;;8.52;4.38;;;16.20;80.90;;;;;;5061044;28;20028;-72
2021/10/20 02:33:29;;;;;;;6.05;4.30;;;16.20;81.50;;;;;;5082309;28;20024;-72
2021/10/20 02:35:54;;;;;;;5.43;4.50;;;16.20;81.10;;;;;;5062144;28;20024;-72
2021/10/20 02:38:20;;;;;;;6.13;4.40;;;16.20;81.20;;;;;;5074656;28;20024;-73
2021/10/20 02:40:46;;;;;;;7.18;4.57;;;16.10;80.50;;;;;;5077835;28;20020;-73
2021/10/20 02:43:12;;;;;;;6.88;4.13;;;16.20;80.90;;;;;;5065209;28;20032;-72
2021/10/20 02:45:37;;;;;;;5.03;4.13;;;16.10;81.30;;;;;;5058931;28;20020;-72
2021/10/20 02:48:04;;;;;;;5.22;3.75;;;16.10;80.90;;;;;;5053651;28;20032;-72
2021/10/20 02:50:30;;;;;;;4.72;3.88;;;16.10;80.90;;;;;;5053862;28;20042;-73
2021/10/20 02:52:57;;;;;;;8.10;4.30;;;16.10;80.80;;;;;;5061439;28;20106;-72
2021/10/20 02:55:23;;;;;;;8.13;4.30;;;16.10;80.70;;;;;;5061930;28;20040;-72
2021/10/20 02:57:49;;;;;;;7.32;4.13;;;16.10;80.80;;;;;;5050057;28;20321;-72
2021/10/20 03:00:15;;;;;;;5.90;4.15;;;16.10;81.20;;;;;;5053602;28;20064;-72
2021/10/20 03:02:41;;;;;;;5.20;4.15;;;16.10;81.00;;;;;;5065861;28;20036;-72
2021/10/20 03:05:08;;;;;;;8.15;4.47;;;16.10;81.10;;;;;;5069801;28;20426;-72
2021/10/20 03:07:34;;;;;;;7.00;4.22;;;16.10;81.00;;;;;;5069765;28;20040;-72
2021/10/20 03:10:00;;;;;;;5.35;4.38;;;16.10;80.80;;;;;;5075028;28;20039;-73
2021/10/20 03:12:26;;;;;;;6.55;4.15;;;16.10;80.90;;;;;;5066683;28;20115;-72
2021/10/20 03:14:52;;;;;;;6.05;4.80;;;16.10;80.60;;;;;;5073565;28;20403;-72
2021/10/20 03:17:17;;;;;;;6.53;4.30;;;16.10;80.60;;;;;;5071258;28;20537;-72
2021/10/20 03:19:44;;;;;;;5.25;4.13;;;16.10;80.80;;;;;;5089424;28;20044;-72
2021/10/20 03:22:11;;;;;;;6.25;4.65;;;16.10;80.40;;;;;;5097759;28;20024;-73
2021/10/20 03:24:37;;;;;;;6.22;4.47;;;16.10;80.50;;;;;;5066370;28;20024;-72
2021/10/20 03:27:03;;;;;;;6.57;4.35;;;16.10;80.70;;;;;;5069710;28;20111;-72
2021/10/20 03:29:29;;;;;;;5.32;4.82;;;16.10;80.60;;;;;;5055197;28;20036;-72
2021/10/20 03:31:54;;;;;;;5.30;4.68;;;16.10;80.70;;;;;;5063058;28;20093;-72
2021/10/20 03:34:20;;;;;;;7.55;5.22;;;16.10;81.00;;;;;;5089481;28;20068;-72
2021/10/20 03:36:46;;;;;;;7.00;4.53;;;16.00;81.20;;;;;;5085362;28;20032;-73
2021/10/20 03:39:11;;;;;;;5.45;4.95;;;16.00;81.40;;;;;;5090901;28;20063;-72
2021/10/20 03:41:37;;;;;;;5.82;5.32;;;16.00;80.90;;;;;;5071846;28;20043;-73
2021/10/20 03:44:03;;;;;;;5.75;4.95;;;16.00;81.30;;;;;;5101289;28;20028;-72
2021/10/20 03:46:29;;;;;;;7.07;5.22;;;16.00;81.10;;;;;;5079704;28;20040;-73
2021/10/20 03:48:54;;;;;;;9.05;5.25;;;16.00;81.10;;;;;;5073642;28;20032;-73
2021/10/20 03:51:20;;;;;;;12.50;5.53;;;16.00;80.90;;;;;;5088219;28;20036;-71
2021/10/20 03:53:46;;;;;;;7.38;6.00;;;16.00;81.30;;;;;;5089583;28;20034;-71
2021/10/20 03:56:11;;;;;;;5.35;4.85;;;16.00;81.30;;;;;;5087208;28;20439;-72
2021/10/20 03:58:37;;;;;;;6.82;5.45;;;16.00;81.20;;;;;;5084502;28;20024;-72
2021/10/20 04:01:03;;;;;;;7.97;5.43;;;16.00;80.90;;;;;;5090901;28;20043;-72
2021/10/20 04:03:28;;;;;;;11.40;5.28;;;16.00;80.90;;;;;;5085913;28;20031;-72
2021/10/20 04:05:54;;;;;;;5.95;5.35;;;16.00;80.90;;;;;;5087805;28;20032;-71
2021/10/20 04:08:20;;;;;;;6.43;5.45;;;16.00;81.10;;;;;;5089509;28;20055;-72
2021/10/20 04:10:45;;;;;;;7.45;6.03;;;16.00;80.90;;;;;;5085821;28;20032;-72
2021/10/20 04:13:11;;;;;;;6.97;5.43;;;16.00;80.70;;;;;;5071203;28;20152;-72
2021/10/20 04:15:37;;;;;;;6.43;5.35;;;16.00;80.80;;;;;;5089162;28;20351;-72
2021/10/20 04:18:03;;;;;;;6.03;4.93;;;16.00;80.40;;;;;;5078350;28;20241;-72
2021/10/20 04:20:29;;;;;;;5.80;5.30;;;16.00;80.60;;;;;;5062718;28;20270;-71
2021/10/20 04:22:55;;;;;;;12.07;4.95;;;16.00;80.40;;;;;;5070626;28;20124;-72
2021/10/20 04:25:21;;;;;;;8.02;5.70;;;16.10;80.50;;;;;;5063570;28;20501;-72
2021/10/20 04:27:48;;;;;;;7.45;5.93;;;16.10;80.60;;;;;;5067662;28;20525;-73
2021/10/20 04:30:16;;;;;;;6.63;5.10;;;16.10;80.80;;;;;;5083931;28;20486;-73
2021/10/20 04:32:42;;;;;;;7.00;5.82;;;16.10;80.50;;;;;;5060507;28;20036;-72
2021/10/20 04:35:09;;;;;;;7.53;4.95;;;16.10;80.80;;;;;;5052950;28;20035;-73
2021/10/20 04:37:36;;;;;;;8.80;5.18;;;16.10;80.80;;;;;;5065280;28;20035;-72
2021/10/20 04:40:03;;;;;;;6.43;4.95;;;16.10;80.40;;;;;;5091253;28;20040;-72
2021/10/20 04:42:30;;;;;;;8.57;5.85;;;16.10;80.40;;;;;;5079378;28;20024;-72
2021/10/20 04:44:56;;;;;;;8.23;5.20;;;16.10;80.50;;;;;;5052252;28;20031;-73
2021/10/20 04:47:22;;;;;;;9.10;5.05;;;16.10;80.90;;;;;;5084696;28;20036;-73
2021/10/20 04:49:49;;;;;;;9.18;5.15;;;16.10;80.90;;;;;;5069156;28;20028;-73
2021/10/20 04:52:15;;;;;;;7.68;5.28;;;16.10;80.70;;;;;;5084823;28;20536;-73
2021/10/20 04:54:41;;;;;;;4.95;4.45;;;16.20;80.60;;;;;;5064475;28;20108;-72
2021/10/20 04:57:06;;;;;;;5.68;5.10;;;16.10;80.50;;;;;;5091700;28;20122;-72
2021/10/20 04:59:33;;;;;;;7.70;5.28;;;16.20;80.70;;;;;;5086497;28;21090;-72
2021/10/20 05:02:00;;;;;;;6.80;5.10;;;16.20;80.90;;;;;;5090937;28;20067;-71
2021/10/20 05:04:26;;;;;;;7.88;5.47;;;16.20;80.80;;;;;;5088357;28;20312;-72
2021/10/20 05:06:52;;;;;;;8.27;6.15;;;16.20;80.70;;;;;;5053469;28;20028;-72
2021/10/20 05:09:18;;;;;;;6.35;5.75;;;16.20;80.40;;;;;;5084812;28;20501;-72
2021/10/20 05:11:44;;;;;;;6.70;5.82;;;16.20;80.20;;;;;;5067569;28;20559;-72
2021/10/20 05:14:10;;;;;;;8.50;6.00;;;16.20;80.40;;;;;;5068636;28;20487;-72
2021/10/20 05:16:35;;;;;;;6.38;5.63;;;16.20;80.30;;;;;;5067885;28;20035;-72
2021/10/20 05:19:01;;;;;;;8.63;6.10;;;16.20;79.90;;;;;;5084637;28;20060;-71
2021/10/20 05:21:27;;;;;;;8.82;6.20;;;16.30;80.40;;;;;;5082404;28;20028;-72
2021/10/20 05:23:53;;;;;;;7.18;6.32;;;16.30;80.00;;;;;;5088046;28;20028;-72
2021/10/20 05:26:19;;;;;;;8.80;6.05;;;16.30;79.80;;;;;;5087479;28;20113;-72
2021/10/20 05:28:45;;;;;;;8.80;6.43;;;16.30;79.80;;;;;;5069397;28;20441;-73
2021/10/20 05:31:11;;;;;;;6.93;6.22;;;16.30;79.90;;;;;;5063367;28;20036;-73
2021/10/20 05:33:37;;;;;;;11.57;6.22;;;16.30;79.70;;;;;;5087410;28;20032;-72
2021/10/20 05:36:03;;;;;;;7.93;6.30;;;16.30;79.90;;;;;;5079863;28;20048;-71
2021/10/20 05:38:29;;;;;;;10.55;6.57;;;16.30;79.90;;;;;;5087720;28;20028;-72
2021/10/20 05:40:55;;;;;;;7.20;6.43;;;16.30;79.90;;;;;;5067288;28;20032;-72
2021/10/20 05:43:20;;;;;;;9.00;6.57;;;16.30;80.00;;;;;;5058728;28;20028;-73
2021/10/20 05:45:47;;;;;;;8.75;6.78;;;16.30;80.00;;;;;;5086313;28;20050;-71
2021/10/20 05:48:15;;;;;;;9.13;6.15;;;16.30;79.70;;;;;;5092203;28;20398;-72
2021/10/20 05:50:41;;;;;;;8.25;6.35;;;16.30;79.70;;;;;;5096505;28;20046;-72
2021/10/20 05:53:06;;;;;;;7.20;6.15;;;16.30;79.80;;;;;;5067051;28;20027;-72
2021/10/20 05:55:32;;;;;;;9.20;5.68;;;16.30;80.00;;;;;;5094048;28;20036;-72
2021/10/20 05:57:58;;;;;;;7.45;5.93;;;16.30;80.10;;;;;;5069327;28;20411;-72
2021/10/20 06:00:23;;;;;;;8.23;6.88;;;16.30;80.00;;;;;;5089741;28;20094;-72
2021/10/20 06:02:49;;;;;;;12.25;6.47;;;16.20;79.70;;;;;;5099985;28;20040;-72
2021/10/20 06:05:15;;;;;;;9.50;6.65;;;16.20;80.20;;;;;;5078410;28;20039;-73
2021/10/20 06:07:42;;;;;;;7.93;6.03;;;16.20;79.80;;;;;;5078681;28;20436;-73
2021/10/20 06:10:09;;;;;;;13.00;7.40;;;16.20;79.90;;;;;;5072132;28;20465;-72
2021/10/20 06:12:35;;;;;;;8.52;5.97;;;16.20;79.60;;;;;;5091090;28;20066;-73
2021/10/20 06:15:01;;;;;;;7.25;5.93;;;16.20;79.40;;;;;;5068032;28;20073;-72
2021/10/20 06:17:27;;;;;;;8.98;5.50;;;16.30;79.30;;;;;;5072435;28;20036;-73
2021/10/20 06:19:53;;;;;;;6.93;5.90;;;16.30;79.80;;;;;;5082725;28;20455;-71
2021/10/20 06:22:18;;;;;;;6.72;6.03;;;16.30;80.10;;;;;;5100259;28;20056;-72
2021/10/20 06:24:44;;;;;;;6.38;5.45;;;16.30;80.00;;;;;;5093201;28;20032;-72
2021/10/20 06:27:09;;;;;;;9.25;5.57;;;16.30;80.00;;;;;;5075299;28;20036;-71
2021/10/20 06:29:35;;;;;;;7.53;6.00;;;16.30;79.90;;;;;;5092122;28;20040;-72
2021/10/20 06:32:01;;;;;;;7.47;5.93;;;16.30;79.90;;;;;;5085785;28;20058;-72
2021/10/20 06:34:26;;;;;;;6.65;5.85;;;16.30;79.90;;;;;;5081955;28;20039;-72
2021/10/20 06:36:52;;;;;;;6.97;6.22;;;16.30;79.50;;;;;;5070637;28;20095;-72
2021/10/20 06:39:21;;;;;;;7.50;5.45;;;16.30;80.00;;;;;;5080577;28;20493;-72
2021/10/20 06:41:48;;;;;;;7.18;5.40;;;16.30;79.50;;;;;;5085857;28;20510;-72
2021/10/20 06:44:14;;;;;;;6.90;6.20;;;16.30;79.60;;;;;;5076847;28;20467;-71
2021/10/20 06:46:40;;;;;;;8.43;6.10;;;16.30;79.10;;;;;;5085089;28;20098;-72
2021/10/20 06:49:06;;;;;;;8.77;5.80;;;16.40;79.30;;;;;;5089203;28;20032;-72
2021/10/20 06:51:32;;;;;;;8.93;5.90;;;16.40;79.40;;;;;;5089721;28;20039;-72
2021/10/20 06:53:58;;;;;;;7.05;5.63;;;16.40;79.60;;;;;;5087525;28;20028;-71
2021/10/20 06:56:24;;;;;;;11.07;5.88;;;16.40;79.70;;;;;;5075939;28;20024;-72
2021/10/20 06:58:50;;;;;;;8.68;6.00;;;16.30;79.90;;;;;;5069456;28;20123;-72
2021/10/20 07:01:16;;;;;;;8.45;5.82;;;16.40;80.20;;;;;;5072633;28;20088;-71
2021/10/20 07:03:43;;;;;;;5.68;5.10;;;16.30;80.00;;;;;;5089612;28;20042;-73
2021/10/20 07:06:08;;;;;;;6.45;5.65;;;16.30;80.20;;;;;;5095097;28;20587;-72
2021/10/20 07:08:34;;;;;;;6.90;4.95;;;16.30;80.30;;;;;;5062450;28;20040;-71
2021/10/20 07:11:00;;;;;;;8.55;5.72;;;16.40;80.40;;;;;;5080150;28;20064;-72
2021/10/20 07:13:25;;;;;;;8.45;5.90;;;16.40;80.40;;;;;;5073186;28;20031;-72
2021/10/20 07:15:53;;;;;;;5.93;5.32;;;16.40;80.40;;;;;;5093540;28;20042;-72
2021/10/20 07:18:21;;;;;;;8.63;5.50;;;16.40;80.40;;;;;;5089599;28;20040;-71
2021/10/20 07:20:47;;;;;;;5.55;5.05;;;16.40;80.60;;;;;;5087839;28;20024;-72
2021/10/20 07:23:12;;;;;;;8.05;5.50;;;16.40;80.60;;;;;;5079625;28;20035;-72
2021/10/20 07:25:38;;;;;;;7.95;5.03;;;16.40;80.60;;;;;;5068891;28;20033;-71
2021/10/20 07:28:05;;;;;;;7.18;5.68;;;16.40;80.80;;;;;;5069606;28;20036;-72
2021/10/20 07:30:30;;;;;;;9.25;5.25;;;16.40;80.80;;;;;;5063602;28;20028;-72
2021/10/20 07:32:56;;;;;;;6.53;5.93;;;16.40;80.70;;;;;;5088334;28;20034;-72
2021/10/20 07:35:22;;;;;;;8.88;5.85;;;16.50;80.70;;;;;;5093607;28;20036;-72
2021/10/20 07:37:48;;;;;;;6.53;5.55;;;16.50;80.90;;;;;;5089714;28;20020;-72
2021/10/20 07:40:15;;;;;;;7.28;5.45;;;16.50;81.00;;;;;;5075549;28;20039;-71
2021/10/20 07:42:44;;;;;;;7.63;6.15;;;16.60;81.30;;;;;;5078108;28;20082;-72
2021/10/20 07:45:14;;;;;;;7.22;5.78;;;16.50;81.20;;;;;;5086197;28;20474;-71
2021/10/20 07:47:40;;;;;;;7.05;5.57;;;16.60;81.40;;;;;;5094677;28;20023;-71
2021/10/20 07:50:08;;;;;;;11.38;5.93;;;16.50;81.30;;;;;;5054608;28;20495;-71
2021/10/20 07:52:35;;;;;;;8.55;5.68;;;16.50;81.30;;;;;;5071784;28;20046;-71
2021/10/20 07:55:02;;;;;;;8.05;5.88;;;16.50;81.80;;;;;;5089095;28;20031;-72
2021/10/20 07:57:29;;;;;;;6.05;5.32;;;16.50;81.80;;;;;;5088684;28;20456;-72
2021/10/20 07:59:55;;;;;;;7.97;5.68;;;16.60;82.20;;;;;;5067753;28;20029;-72
2021/10/20 08:02:21;;;;;;;6.78;5.55;;;16.60;82.50;;;;;;5093330;28;20024;-72
2021/10/20 08:04:47;;;;;;;7.88;6.03;;;16.60;82.70;;;;;;5070672;28;20020;-72
2021/10/20 08:07:13;;;;;;;8.23;6.38;;;16.50;82.70;;;;;;5071162;28;20085;-72
2021/10/20 08:09:39;;;;;;;6.93;6.22;;;16.50;83.20;;;;;;5073461;28;20024;-72
2021/10/20 08:12:05;;;;;;;6.38;5.68;;;16.50;83.40;;;;;;5065601;28;20028;-71
2021/10/20 08:14:32;;;;;;;8.23;5.93;;;16.50;83.30;;;;;;5088251;28;20039;-71
2021/10/20 08:16:58;;;;;;;6.95;6.22;;;16.50;83.40;;;;;;5085385;28;20052;-72
2021/10/20 08:19:23;;;;;;;7.60;6.65;;;16.50;83.60;;;;;;5064452;28;20076;-72
2021/10/20 08:21:49;;;;;;;6.88;5.88;;;16.50;83.60;;;;;;5075063;28;20058;-73
2021/10/20 08:24:15;;;;;;;12.48;6.32;;;16.40;83.30;;;;;;5092701;28;20100;-73
2021/10/20 08:26:40;;;;;;;7.13;6.43;;;16.40;83.60;;;;;;5083277;28;20024;-73
2021/10/20 08:29:08;;;;;;;8.40;6.60;;;16.40;83.50;;;;;;5085712;28;20032;-73
2021/10/20 08:31:33;;;;;;;9.88;6.97;;;16.50;83.70;;;;;;5082021;28;20035;-73
2021/10/20 08:33:59;;;;;;;7.50;6.80;;;16.50;83.70;;;;;;5081539;28;20040;-73
2021/10/20 08:36:25;;;;;;;7.05;6.13;;;16.50;84.20;;;;;;5050358;28;20035;-72
2021/10/20 08:38:50;;;;;;;10.30;6.90;;;16.50;84.50;;;;;;5060369;28;20115;-72
2021/10/20 08:41:16;;;;;;;11.20;6.93;;;16.50;84.70;;;;;;5075505;28;20033;-72
2021/10/20 08:43:42;;;;;;;7.90;6.63;;;16.50;84.90;;;;;;5083642;28;20060;-73
2021/10/20 08:46:08;;;;;;;6.82;6.13;;;16.50;84.90;;;;;;5085394;28;20107;-72
2021/10/20 08:48:35;;;;;;;7.25;6.55;;;16.60;84.80;;;;;;5087750;28;20028;-72
2021/10/20 08:51:03;;;;;;;7.97;6.57;;;16.60;84.70;;;;;;5069119;28;20044;-72
2021/10/20 08:53:30;;;;;;;8.00;7.20;;;16.60;84.50;;;;;;5085829;28;20063;-72
2021/10/20 08:55:57;;;;;;;11.95;7.20;;;16.60;84.40;;;;;;5076536;28;20024;-72
2021/10/20 08:58:23;;;;;;;13.20;6.63;;;16.60;84.30;;;;;;5070128;28;20514;-72
2021/10/20 09:00:49;;;;;;;7.70;6.97;;;16.70;84.20;;;;;;5064338;28;20028;-73
2021/10/20 09:03:15;;;;;;;7.82;7.03;;;16.80;84.20;;;;;;5072950;28;20028;-72
2021/10/20 09:05:41;;;;;;;9.32;6.28;;;16.90;83.90;;;;;;5086867;28;20028;-72
2021/10/20 09:08:07;;;;;;;11.73;7.30;;;16.90;83.90;;;;;;5061687;28;20036;-72
2021/10/20 09:10:33;;;;;;;6.97;6.28;;;17.00;83.30;;;;;;5076477;28;20040;-72
2021/10/20 09:13:00;;;;;;;8.10;6.30;;;17.10;83.00;;;;;;5091363;28;20028;-73
2021/10/20 09:15:32;;;;;;;9.90;7.10;;;17.10;83.00;;;;;;5095665;28;20046;-72
2021/10/20 09:18:01;;;;;;;;;;;17.10;82.50;;;;;;5091799;28;20039;-73
2021/10/20 09:20:44;;;;;;;7.20;6.47;;;17.10;82.60;;;;;;5099092;28;19919;-73
2021/10/20 09:23:14;;;;;;;7.45;6.53;;;17.00;82.50;;;;;;5105660;28;20017;-73
2021/10/20 09:25:55;;;;;;;7.80;7.00;;;17.00;82.50;;;;;;5091404;28;20020;-72
2021/10/20 09:28:31;;;;;;;8.95;7.28;;;17.00;82.60;;;;;;5074694;28;20490;-73
2021/10/20 09:30:59;;;;;;;8.50;6.78;;;17.00;83.20;;;;;;5092860;28;20116;-74
2021/10/20 09:33:25;;;;;;;7.72;6.90;;;17.00;82.60;;;;;;5101994;28;20020;-73
2021/10/20 09:35:51;;;;;;;8.02;6.68;;;17.00;83.00;;;;;;5100089;28;20033;-74
2021/10/20 09:38:19;;;;;;;9.38;6.88;;;17.00;83.10;;;;;;5095135;28;20027;-73
2021/10/20 09:40:48;;;;;;;7.82;7.10;;;17.00;82.90;;;;;;5073300;28;20073;-73
2021/10/20 09:43:18;;;;;;;8.15;6.43;;;17.00;82.80;;;;;;5091991;28;20059;-74
2021/10/20 09:45:45;;;;;;;7.25;6.45;;;17.00;83.00;;;;;;5072074;28;20016;-73
2021/10/20 09:48:23;;;;;;;7.70;6.72;;;17.10;83.10;;;;;;5101907;28;20034;-73
2021/10/20 09:51:09;;;;;;;9.18;7.65;;;17.10;82.50;;;;;;5093647;28;20047;-73
2021/10/20 09:53:43;;;;;;;11.43;7.47;;;17.20;82.70;;;;;;5072901;28;20020;-73
2021/10/20 09:56:34;;;;;;;12.27;7.25;;;17.20;82.50;;;;;;5105591;28;20020;-73
2021/10/20 09:59:00;;;;;;;9.70;7.32;;;17.20;82.50;;;;;;5096634;28;20036;-73
2021/10/20 10:01:28;;;;;;;7.78;6.88;;;17.20;82.60;;;;;;5071847;28;20036;-73
2021/10/20 10:03:58;;;;;;;8.77;6.72;;;17.20;82.70;;;;;;5107058;28;20428;-73
2021/10/20 10:06:24;;;;;;;8.40;7.20;;;17.30;82.60;;;;;;5084601;28;20020;-73
2021/10/20 10:08:50;;;;;;;10.32;7.80;;;17.30;82.70;;;;;;5087933;28;20184;-73
2021/10/20 10:11:16;;;;;;;9.02;7.15;;;17.30;82.50;;;;;;5073818;28;20342;-73
2021/10/20 10:13:48;;;;;;;11.23;7.00;;;17.40;82.90;;;;;;5074750;28;20024;-73
2021/10/20 10:16:19;;;;;;;9.07;7.53;;;17.40;82.50;;;;;;5091787;28;20454;-73
2021/10/20 10:18:44;;;;;;;8.07;7.28;;;17.50;82.50;;;;;;5071750;28;20775;-73
2021/10/20 10:21:37;;;;;;;8.45;7.57;;;17.50;82.10;;;;;;5090878;28;20109;-73
2021/10/20 10:24:08;;;;;;;8.15;6.93;;;17.60;82.20;;;;;;5096379;28;20021;-73
2021/10/20 10:26:36;;;;;;;9.23;7.10;;;17.60;82.00;;;;;;5089171;28;20016;-73
2021/10/20 10:29:13;;;;;;;10.70;7.53;;;17.60;81.80;;;;;;5069232;28;20073;-71
2021/10/20 10:31:43;;;;;;;9.52;7.50;;;17.50;81.80;;;;;;5085381;28;20028;-72
2021/10/20 10:34:30;;;;;;;8.68;7.75;;;17.60;82.00;;;;;;5082987;28;20111;-72
2021/10/20 10:37:00;;;;;;;8.73;6.88;;;17.50;81.90;;;;;;5093023;28;20039;-71
2021/10/20 10:39:31;;;;;;;10.05;6.88;;;17.50;82.00;;;;;;5084579;28;20115;-72
2021/10/20 10:41:58;;;;;;;9.80;7.47;;;17.50;82.10;;;;;;5073923;28;20027;-71
2021/10/20 10:44:26;;;;;;;13.70;7.53;;;17.50;82.20;;;;;;5092773;28;20482;-71
2021/10/20 10:46:55;;;;;;;8.32;6.95;;;17.40;82.00;;;;;;5072400;28;20024;-72
2021/10/20 10:49:29;;;;;;;7.70;6.90;;;17.40;82.40;;;;;;5070668;28;20047;-71
2021/10/20 10:52:06;;;;;;;7.10;6.40;;;17.40;82.10;;;;;;5068393;28;20024;-71
2021/10/20 10:54:39;;;;;;;8.00;6.72;;;17.50;82.20;;;;;;5087122;28;20063;-71
2021/10/20 10:57:13;;;;;;;11.00;7.28;;;17.50;82.10;;;;;;5050979;28;20032;-71
2021/10/20 10:59:39;;;;;;;8.18;7.10;;;17.50;82.20;;;;;;5074721;28;20110;-72
2021/10/20 11:02:41;;;;;;;7.25;6.55;;;17.50;82.00;;;;;;5087970;28;20111;-72
2021/10/20 11:05:08;;;;;;;7.05;6.35;;;17.50;82.10;;;;;;5099304;28;20519;-72
2021/10/20 11:07:35;;;;;;;7.57;6.75;;;17.50;82.10;;;;;;5071710;28;20560;-71
2021/10/20 11:10:01;;;;;;;7.32;6.32;;;17.50;82.00;;;;;;5097216;28;20103;-72
2021/10/20 11:12:27;;;;;;;7.25;6.25;;;17.50;82.00;;;;;;5075702;28;20113;-73
2021/10/20 11:14:55;;;;;;;7.22;6.55;;;17.60;81.90;;;;;;5083116;28;20083;-71
2021/10/20 11:17:22;;;;;;;6.55;5.90;;;17.50;81.80;;;;;;5076666;28;20044;-72
2021/10/20 11:19:48;;;;;;;6.93;6.10;;;17.50;81.80;;;;;;5079169;28;20547;-72
2021/10/20 11:22:23;;;;;;;6.90;5.78;;;17.60;81.60;;;;;;5080486;28;20024;-73
2021/10/20 11:24:52;;;;;;;9.60;6.78;;;17.50;81.60;;;;;;5081673;28;20016;-71
2021/10/20 11:27:22;;;;;;;7.68;6.20;;;17.50;81.30;;;;;;5085663;28;20397;-71
2021/10/20 11:29:49;;;;;;;8.05;6.35;;;17.60;81.50;;;;;;5082162;28;20022;-72
2021/10/20 11:32:17;;;;;;;8.38;6.45;;;17.60;81.40;;;;;;5081190;28;20162;-71
2021/10/20 11:34:44;;;;;;;6.38;5.78;;;17.60;81.30;;;;;;5085232;28;20085;-71
2021/10/20 11:37:12;;;;;;;7.35;6.38;;;17.60;81.30;;;;;;5066133;28;20557;-72
2021/10/20 11:39:39;;;;;;;7.75;6.07;;;17.60;81.20;;;;;;5081202;28;20467;-73
2021/10/20 11:42:12;;;;;;;7.53;6.03;;;17.60;81.20;;;;;;5059846;28;20029;-71
2021/10/20 11:44:39;;;;;;;;;;;17.60;81.20;;;;;;5065644;28;20026;-72
2021/10/20 11:47:09;;;;;;;6.70;5.40;;;17.70;81.10;;;;;;5081918;28;20007;-73
2021/10/20 11:49:36;;;;;;;6.72;5.60;;;17.70;81.10;;;;;;5081166;28;20039;-73
2021/10/20 11:52:05;;;;;;;7.65;6.43;;;17.70;81.10;;;;;;5079953;28;20159;-71
2021/10/20 11:54:31;;;;;;;8.70;5.70;;;17.70;81.10;;;;;;5063423;28;20116;-73
2021/10/20 11:56:59;;;;;;;6.70;5.35;;;17.70;81.20;;;;;;5065063;28;20036;-72
2021/10/20 11:59:29;;;;;;;7.18;6.05;;;17.70;81.20;;;;;;5078915;28;20395;-71
2021/10/20 12:01:56;;;;;;;6.55;5.95;;;17.70;81.00;;;;;;5063769;28;20036;-72
2021/10/20 12:04:24;;;;;;;7.05;5.82;;;17.70;81.10;;;;;;5084006;28;20095;-71
2021/10/20 12:07:11;;;;;;;7.18;5.45;;;17.80;81.00;;;;;;5057161;28;20024;-73
2021/10/20 12:09:43;;;;;;;6.55;5.65;;;17.70;80.90;;;;;;5083030;28;20051;-72
2021/10/20 12:12:11;;;;;;;6.70;5.60;;;17.70;81.00;;;;;;5066814;28;20060;-72
2021/10/20 12:14:39;;;;;;;6.95;6.13;;;17.70;81.00;;;;;;5079339;28;20032;-72
2021/10/20 12:17:07;;;;;;;7.22;5.72;;;17.70;81.10;;;;;;5068481;28;20040;-71
2021/10/20 12:19:36;;;;;;;7.18;5.93;;;17.70;81.50;;;;;;5084812;28;20048;-71
2021/10/20 12:22:07;;;;;;;7.53;6.80;;;17.70;81.20;;;;;;5072697;28;20540;-72
2021/10/20 12:24:40;;;;;;;7.70;5.68;;;17.70;81.40;;;;;;5075659;28;20079;-72
2021/10/20 12:27:10;;;;;;;9.30;6.07;;;17.70;81.00;;;;;;5079699;28;20031;-71
2021/10/20 12:29:42;;;;;;;7.32;6.13;;;17.70;81.20;;;;;;5076122;28;20398;-72
2021/10/20 12:32:18;;;;;;;9.10;6.05;;;17.80;81.40;;;;;;5080785;28;20394;-71
2021/10/20 12:34:57;;;;;;;7.85;7.03;;;17.80;81.70;;;;;;5087522;28;20081;-72
2021/10/20 12:37:49;;;;;;;7.97;7.00;;;17.70;82.40;;;;;;5075749;28;20057;-72
2021/10/20 12:40:19;;;;;;;7.60;6.43;;;17.70;82.80;;;;;;5082950;28;20036;-71
2021/10/20 12:42:58;;;;;;;7.80;6.63;;;17.70;82.50;;;;;;5084664;28;20088;-72
2021/10/20 12:45:28;;;;;;;9.55;7.43;;;17.70;82.70;;;;;;5096289;28;20017;-72
2021/10/20 12:48:01;;;;;;;7.35;6.60;;;17.70;82.60;;;;;;5088027;28;20031;-73
2021/10/20 12:50:28;;;;;;;;;;;17.70;82.60;;;;;;5086775;28;20024;-74